Terminal Aerodrome Forecast
Issued by NWS

Home | Current Version | Previous Version | Text Only | Print | Product List | Glossary On
Versions: 1 2 3 4 5 6 7 8 9 10 11 12
000
FTUS42 KMLB 212300
TAFTIX
TAF
KTIX 212330Z 2200/2224 VRB04KT P6SM VCSH SCT050 OVC100
     FM220800 VRB03KT P6SM VCSH SCT010 BKN015 OVC030
     FM221500 18009KT P6SM VCSH SCT030 BKN050 BKN100
      AMD NOT SKED 2202/2212=

USA.gov is the U.S. government's official web portal to all federal, state and local government web resources and services.